sensor_id;sensor_type;location;lat;lon;timestamp;temperature;humidity
57552;DHT22;43379;48.160;14.036;2023-04-01T00:02:07;11.70;99.90
57552;DHT22;43379;48.160;14.036;2023-04-01T00:04:33;11.70;99.90
57552;DHT22;43379;48.160;14.036;2023-04-01T00:06:59;11.80;99.90
57552;DHT22;43379;48.160;14.036;2023-04-01T00:09:25;11.70;99.70
57552;DHT22;43379;48.160;14.036;2023-04-01T00:11:51;11.70;99.50
57552;DHT22;43379;48.160;14.036;2023-04-01T00:14:18;11.70;99.70
57552;DHT22;43379;48.160;14.036;2023-04-01T00:16:43;11.70;99.50
57552;DHT22;43379;48.160;14.036;2023-04-01T00:19:09;11.70;99.40
57552;DHT22;43379;48.160;14.036;2023-04-01T00:21:35;11.70;99.10
57552;DHT22;43379;48.160;14.036;2023-04-01T00:24:02;11.70;99.40
57552;DHT22;43379;48.160;14.036;2023-04-01T00:26:28;11.70;99.40
57552;DHT22;43379;48.160;14.036;2023-04-01T00:28:53;11.70;99.50
57552;DHT22;43379;48.160;14.036;2023-04-01T00:31:19;11.70;99.40
57552;DHT22;43379;48.160;14.036;2023-04-01T00:33:45;11.70;99.60
57552;DHT22;43379;48.160;14.036;2023-04-01T00:36:14;11.80;99.50
57552;DHT22;43379;48.160;14.036;2023-04-01T00:38:40;11.80;99.60
57552;DHT22;43379;48.160;14.036;2023-04-01T00:41:07;11.80;99.40
57552;DHT22;43379;48.160;14.036;2023-04-01T00:43:33;11.80;99.40
57552;DHT22;43379;48.160;14.036;2023-04-01T00:45:59;11.80;99.60
57552;DHT22;43379;48.160;14.036;2023-04-01T00:48:27;11.80;99.70
57552;DHT22;43379;48.160;14.036;2023-04-01T00:51:09;11.80;99.90
57552;DHT22;43379;48.160;14.036;2023-04-01T00:53:41;11.80;99.90
57552;DHT22;43379;48.160;14.036;2023-04-01T00:56:14;11.80;99.80
57552;DHT22;43379;48.160;14.036;2023-04-01T00:58:47;11.70;99.90
57552;DHT22;43379;48.160;14.036;2023-04-01T01:01:14;11.70;99.80
57552;DHT22;43379;48.160;14.036;2023-04-01T01:03:40;11.70;99.70
57552;DHT22;43379;48.160;14.036;2023-04-01T01:11:57;11.70;99.50
57552;DHT22;43379;48.160;14.036;2023-04-01T01:37:06;11.50;99.90
57552;DHT22;43379;48.160;14.036;2023-04-01T01:39:34;11.50;99.90
57552;DHT22;43379;48.160;14.036;2023-04-01T01:42:04;11.50;99.90
57552;DHT22;43379;48.160;14.036;2023-04-01T01:44:32;11.60;99.90
57552;DHT22;43379;48.160;14.036;2023-04-01T01:47:00;11.60;99.90
57552;DHT22;43379;48.160;14.036;2023-04-01T01:49:27;11.50;99.90
57552;DHT22;43379;48.160;14.036;2023-04-01T01:51:56;11.60;99.90
57552;DHT22;43379;48.160;14.036;2023-04-01T01:54:21;11.60;99.90
57552;DHT22;43379;48.160;14.036;2023-04-01T01:56:50;11.60;99.90
57552;DHT22;43379;48.160;14.036;2023-04-01T01:59:18;11.60;99.90
57552;DHT22;43379;48.160;14.036;2023-04-01T02:01:50;11.60;99.90
57552;DHT22;43379;48.160;14.036;2023-04-01T02:04:18;11.60;99.90
57552;DHT22;43379;48.160;14.036;2023-04-01T02:07:03;11.50;99.90
57552;DHT22;43379;48.160;14.036;2023-04-01T02:09:30;11.60;99.90
57552;DHT22;43379;48.160;14.036;2023-04-01T02:11:59;11.60;99.90
57552;DHT22;43379;48.160;14.036;2023-04-01T02:14:30;11.60;99.90
57552;DHT22;43379;48.160;14.036;2023-04-01T02:17:06;11.50;99.90
57552;DHT22;43379;48.160;14.036;2023-04-01T02:20:05;11.50;99.90
57552;DHT22;43379;48.160;14.036;2023-04-01T02:22:34;11.50;99.90
57552;DHT22;43379;48.160;14.036;2023-04-01T02:25:09;11.50;99.90
57552;DHT22;43379;48.160;14.036;2023-04-01T02:27:36;11.40;99.90
57552;DHT22;43379;48.160;14.036;2023-04-01T02:30:02;11.30;99.90
57552;DHT22;43379;48.160;14.036;2023-04-01T02:32:29;11.30;99.90
57552;DHT22;43379;48.160;14.036;2023-04-01T02:34:57;11.20;99.90
57552;DHT22;43379;48.160;14.036;2023-04-01T02:37:24;11.20;99.90
57552;DHT22;43379;48.160;14.036;2023-04-01T02:39:50;11.20;99.90
57552;DHT22;43379;48.160;14.036;2023-04-01T02:42:15;11.20;99.90
57552;DHT22;43379;48.160;14.036;2023-04-01T02:44:41;11.20;99.90
57552;DHT22;43379;48.160;14.036;2023-04-01T02:47:07;11.20;99.90
57552;DHT22;43379;48.160;14.036;2023-04-01T02:49:32;11.10;99.90
57552;DHT22;43379;48.160;14.036;2023-04-01T02:51:58;11.10;99.90
57552;DHT22;43379;48.160;14.036;2023-04-01T02:54:24;11.20;99.90
57552;DHT22;43379;48.160;14.036;2023-04-01T02:56:49;11.10;99.90
57552;DHT22;43379;48.160;14.036;2023-04-01T02:59:15;11.00;99.90
57552;DHT22;43379;48.160;14.036;2023-04-01T03:01:41;11.00;99.90
57552;DHT22;43379;48.160;14.036;2023-04-01T03:04:06;11.00;99.90
57552;DHT22;43379;48.160;14.036;2023-04-01T03:06:32;11.00;99.90
57552;DHT22;43379;48.160;14.036;2023-04-01T03:08:57;10.90;99.90
57552;DHT22;43379;48.160;14.036;2023-04-01T03:11:23;10.90;99.90
57552;DHT22;43379;48.160;14.036;2023-04-01T03:13:49;11.00;99.90
57552;DHT22;43379;48.160;14.036;2023-04-01T03:16:15;11.00;99.90
57552;DHT22;43379;48.160;14.036;2023-04-01T03:18:40;11.00;99.90
57552;DHT22;43379;48.160;14.036;2023-04-01T03:21:17;10.90;99.90
57552;DHT22;43379;48.160;14.036;2023-04-01T03:23:43;10.90;99.90
57552;DHT22;43379;48.160;14.036;2023-04-01T03:26:09;10.90;99.90
57552;DHT22;43379;48.160;14.036;2023-04-01T03:28:35;10.90;99.90
57552;DHT22;43379;48.160;14.036;2023-04-01T03:31:00;10.90;99.90
57552;DHT22;43379;48.160;14.036;2023-04-01T03:33:26;10.80;99.90
57552;DHT22;43379;48.160;14.036;2023-04-01T03:35:52;10.80;99.90
57552;DHT22;43379;48.160;14.036;2023-04-01T03:38:18;10.80;99.90
57552;DHT22;43379;48.160;14.036;2023-04-01T03:40:44;10.70;99.90
57552;DHT22;43379;48.160;14.036;2023-04-01T03:43:10;10.70;99.90
57552;DHT22;43379;48.160;14.036;2023-04-01T03:45:46;10.70;99.90
57552;DHT22;43379;48.160;14.036;2023-04-01T03:48:11;10.70;99.90
57552;DHT22;43379;48.160;14.036;2023-04-01T03:50:37;10.70;99.90
57552;DHT22;43379;48.160;14.036;2023-04-01T03:53:03;10.70;99.90
57552;DHT22;43379;48.160;14.036;2023-04-01T03:55:28;10.70;99.90
57552;DHT22;43379;48.160;14.036;2023-04-01T03:57:54;10.60;99.90
57552;DHT22;43379;48.160;14.036;2023-04-01T04:00:20;10.60;99.90
57552;DHT22;43379;48.160;14.036;2023-04-01T04:02:45;10.60;99.90
57552;DHT22;43379;48.160;14.036;2023-04-01T04:05:11;10.60;99.90
57552;DHT22;43379;48.160;14.036;2023-04-01T04:07:38;10.50;99.90
57552;DHT22;43379;48.160;14.036;2023-04-01T04:10:04;10.50;99.90
57552;DHT22;43379;48.160;14.036;2023-04-01T04:12:30;10.50;99.90
57552;DHT22;43379;48.160;14.036;2023-04-01T04:14:56;10.40;99.90
57552;DHT22;43379;48.160;14.036;2023-04-01T04:17:21;10.40;99.90
57552;DHT22;43379;48.160;14.036;2023-04-01T04:19:47;10.40;99.90
57552;DHT22;43379;48.160;14.036;2023-04-01T04:22:13;10.40;99.90
57552;DHT22;43379;48.160;14.036;2023-04-01T04:24:39;10.30;99.90
57552;DHT22;43379;48.160;14.036;2023-04-01T04:27:04;10.40;99.90
57552;DHT22;43379;48.160;14.036;2023-04-01T04:29:30;10.40;99.90
57552;DHT22;43379;48.160;14.036;2023-04-01T04:31:56;10.40;99.90
57552;DHT22;43379;48.160;14.036;2023-04-01T04:34:22;10.40;99.90
57552;DHT22;43379;48.160;14.036;2023-04-01T04:36:48;10.30;99.90
57552;DHT22;43379;48.160;14.036;2023-04-01T04:39:15;10.30;99.90
57552;DHT22;43379;48.160;14.036;2023-04-01T04:41:41;10.30;99.90
57552;DHT22;43379;48.160;14.036;2023-04-01T04:44:07;10.30;99.90
57552;DHT22;43379;48.160;14.036;2023-04-01T04:46:33;10.30;99.90
57552;DHT22;43379;48.160;14.036;2023-04-01T04:48:59;10.30;99.90
57552;DHT22;43379;48.160;14.036;2023-04-01T04:51:25;10.30;99.90
57552;DHT22;43379;48.160;14.036;2023-04-01T04:53:51;10.20;99.90
57552;DHT22;43379;48.160;14.036;2023-04-01T04:56:21;10.30;99.90
57552;DHT22;43379;48.160;14.036;2023-04-01T04:58:48;10.30;99.90
57552;DHT22;43379;48.160;14.036;2023-04-01T05:01:15;10.30;99.90
57552;DHT22;43379;48.160;14.036;2023-04-01T05:03:42;10.30;99.90
57552;DHT22;43379;48.160;14.036;2023-04-01T05:06:09;10.30;99.90
57552;DHT22;43379;48.160;14.036;2023-04-01T05:08:35;10.30;99.90
57552;DHT22;43379;48.160;14.036;2023-04-01T05:11:02;10.30;99.90
57552;DHT22;43379;48.160;14.036;2023-04-01T05:13:28;10.30;99.90
57552;DHT22;43379;48.160;14.036;2023-04-01T05:15:54;10.30;99.90
57552;DHT22;43379;48.160;14.036;2023-04-01T05:18:21;10.30;99.90
57552;DHT22;43379;48.160;14.036;2023-04-01T05:20:49;10.30;99.90
57552;DHT22;43379;48.160;14.036;2023-04-01T05:23:16;10.30;99.90
57552;DHT22;43379;48.160;14.036;2023-04-01T05:25:42;10.40;99.90
57552;DHT22;43379;48.160;14.036;2023-04-01T05:28:08;10.30;99.90
57552;DHT22;43379;48.160;14.036;2023-04-01T05:30:33;10.30;99.90
57552;DHT22;43379;48.160;14.036;2023-04-01T05:32:59;10.30;99.90
57552;DHT22;43379;48.160;14.036;2023-04-01T05:35:25;10.40;99.90
57552;DHT22;43379;48.160;14.036;2023-04-01T05:37:51;10.30;99.90
57552;DHT22;43379;48.160;14.036;2023-04-01T05:40:16;10.40;99.90
57552;DHT22;43379;48.160;14.036;2023-04-01T05:42:42;10.40;99.90
57552;DHT22;43379;48.160;14.036;2023-04-01T05:45:08;10.40;99.90
57552;DHT22;43379;48.160;14.036;2023-04-01T05:47:34;10.40;99.90
57552;DHT22;43379;48.160;14.036;2023-04-01T05:49:59;10.40;99.90
57552;DHT22;43379;48.160;14.036;2023-04-01T05:52:25;10.40;99.90
57552;DHT22;43379;48.160;14.036;2023-04-01T05:54:51;10.40;99.90
57552;DHT22;43379;48.160;14.036;2023-04-01T05:57:16;10.50;99.90
57552;DHT22;43379;48.160;14.036;2023-04-01T05:59:42;10.60;99.90
57552;DHT22;43379;48.160;14.036;2023-04-01T06:02:09;10.60;99.90
57552;DHT22;43379;48.160;14.036;2023-04-01T06:04:39;10.70;99.90
57552;DHT22;43379;48.160;14.036;2023-04-01T06:07:11;10.60;99.90
57552;DHT22;43379;48.160;14.036;2023-04-01T06:09:37;10.60;99.90
57552;DHT22;43379;48.160;14.036;2023-04-01T06:24:02;10.90;99.90
57552;DHT22;43379;48.160;14.036;2023-04-01T06:26:44;10.90;99.90
57552;DHT22;43379;48.160;14.036;2023-04-01T06:34:34;11.40;99.90
57552;DHT22;43379;48.160;14.036;2023-04-01T06:37:41;11.50;99.90
57552;DHT22;43379;48.160;14.036;2023-04-01T06:43:13;11.80;99.90
57552;DHT22;43379;48.160;14.036;2023-04-01T06:51:32;12.10;99.90
57552;DHT22;43379;48.160;14.036;2023-04-01T06:54:16;12.40;99.90
57552;DHT22;43379;48.160;14.036;2023-04-01T06:56:44;12.60;99.90
57552;DHT22;43379;48.160;14.036;2023-04-01T06:59:20;12.70;99.90
57552;DHT22;43379;48.160;14.036;2023-04-01T07:01:49;13.00;99.90
57552;DHT22;43379;48.160;14.036;2023-04-01T07:04:26;13.40;99.90
57552;DHT22;43379;48.160;14.036;2023-04-01T07:06:58;13.70;99.90
57552;DHT22;43379;48.160;14.036;2023-04-01T07:09:30;14.20;99.90
57552;DHT22;43379;48.160;14.036;2023-04-01T07:12:06;14.30;99.90
57552;DHT22;43379;48.160;14.036;2023-04-01T07:14:38;14.30;99.90
57552;DHT22;43379;48.160;14.036;2023-04-01T07:17:14;14.20;99.60
57552;DHT22;43379;48.160;14.036;2023-04-01T07:20:32;14.00;99.70
57552;DHT22;43379;48.160;14.036;2023-04-01T07:22:44;13.90;99.40
57552;DHT22;43379;48.160;14.036;2023-04-01T07:25:20;13.70;99.60
57552;DHT22;43379;48.160;14.036;2023-04-01T07:27:46;13.50;99.50
57552;DHT22;43379;48.160;14.036;2023-04-01T07:30:19;13.40;99.90
57552;DHT22;43379;48.160;14.036;2023-04-01T07:46:07;13.30;99.90
57552;DHT22;43379;48.160;14.036;2023-04-01T07:48:39;13.40;99.50
57552;DHT22;43379;48.160;14.036;2023-04-01T07:51:15;13.40;99.40
57552;DHT22;43379;48.160;14.036;2023-04-01T07:54:00;13.40;99.60
57552;DHT22;43379;48.160;14.036;2023-04-01T07:59:56;13.60;99.50
57552;DHT22;43379;48.160;14.036;2023-04-01T08:07:36;14.50;99.10
57552;DHT22;43379;48.160;14.036;2023-04-01T08:10:08;14.70;98.40
57552;DHT22;43379;48.160;14.036;2023-04-01T08:13:06;15.00;97.80
57552;DHT22;43379;48.160;14.036;2023-04-01T08:21:02;16.40;97.70
57552;DHT22;43379;48.160;14.036;2023-04-01T08:23:41;16.80;95.60
57552;DHT22;43379;48.160;14.036;2023-04-01T08:26:23;17.20;94.40
57552;DHT22;43379;48.160;14.036;2023-04-01T08:34:23;17.70;92.10
57552;DHT22;43379;48.160;14.036;2023-04-01T08:37:40;17.80;92.30
57552;DHT22;43379;48.160;14.036;2023-04-01T08:39:57;18.10;92.60
57552;DHT22;43379;48.160;14.036;2023-04-01T08:45:21;19.00;91.50
57552;DHT22;43379;48.160;14.036;2023-04-01T08:56:02;20.10;83.80
57552;DHT22;43379;48.160;14.036;2023-04-01T09:01:51;19.40;84.00
57552;DHT22;43379;48.160;14.036;2023-04-01T09:05:43;18.80;84.10
57552;DHT22;43379;48.160;14.036;2023-04-01T09:08:03;18.10;84.40
57552;DHT22;43379;48.160;14.036;2023-04-01T09:44:09;16.10;91.20
57552;DHT22;43379;48.160;14.036;2023-04-01T09:49:41;15.90;90.70
57552;DHT22;43379;48.160;14.036;2023-04-01T09:52:20;15.80;91.30
57552;DHT22;43379;48.160;14.036;2023-04-01T09:54:56;15.60;91.00
57552;DHT22;43379;48.160;14.036;2023-04-01T10:17:00;16.70;91.40
57552;DHT22;43379;48.160;14.036;2023-04-01T10:28:53;16.20;91.30
57552;DHT22;43379;48.160;14.036;2023-04-01T10:37:44;15.80;90.70
57552;DHT22;43379;48.160;14.036;2023-04-01T10:40:03;15.80;90.80
57552;DHT22;43379;48.160;14.036;2023-04-01T10:42:58;15.90;90.60
57552;DHT22;43379;48.160;14.036;2023-04-01T11:10:02;17.50;86.10
57552;DHT22;43379;48.160;14.036;2023-04-01T11:15:38;17.30;84.60
57552;DHT22;43379;48.160;14.036;2023-04-01T11:24:42;16.80;86.60
57552;DHT22;43379;48.160;14.036;2023-04-01T11:27:40;16.60;87.40
57552;DHT22;43379;48.160;14.036;2023-04-01T11:30:33;16.80;89.20
57552;DHT22;43379;48.160;14.036;2023-04-01T11:36:25;17.10;88.40
57552;DHT22;43379;48.160;14.036;2023-04-01T11:41:40;17.30;87.60
57552;DHT22;43379;48.160;14.036;2023-04-01T11:52:53;17.40;85.30
57552;DHT22;43379;48.160;14.036;2023-04-01T11:58:23;17.40;87.10
57552;DHT22;43379;48.160;14.036;2023-04-01T12:03:46;17.60;86.30
57552;DHT22;43379;48.160;14.036;2023-04-01T12:17:28;17.30;82.90
57552;DHT22;43379;48.160;14.036;2023-04-01T12:25:53;16.20;92.20
57552;DHT22;43379;48.160;14.036;2023-04-01T12:29:03;15.90;94.00
57552;DHT22;43379;48.160;14.036;2023-04-01T13:02:26;16.50;96.10
57552;DHT22;43379;48.160;14.036;2023-04-01T13:08:22;16.40;95.70
57552;DHT22;43379;48.160;14.036;2023-04-01T13:16:27;16.50;96.10
57552;DHT22;43379;48.160;14.036;2023-04-01T13:19:01;16.50;95.70
57552;DHT22;43379;48.160;14.036;2023-04-01T13:21:44;16.40;95.80
57552;DHT22;43379;48.160;14.036;2023-04-01T13:41:36;16.40;95.80
57552;DHT22;43379;48.160;14.036;2023-04-01T13:44:16;16.30;95.40
57552;DHT22;43379;48.160;14.036;2023-04-01T13:47:05;16.20;95.10
57552;DHT22;43379;48.160;14.036;2023-04-01T13:58:13;15.70;95.00
57552;DHT22;43379;48.160;14.036;2023-04-01T14:06:27;15.60;94.50
57552;DHT22;43379;48.160;14.036;2023-04-01T14:12:06;15.60;94.90
57552;DHT22;43379;48.160;14.036;2023-04-01T14:15:06;15.50;94.00
57552;DHT22;43379;48.160;14.036;2023-04-01T14:18:04;15.30;93.50
57552;DHT22;43379;48.160;14.036;2023-04-01T14:20:41;15.20;93.30
57552;DHT22;43379;48.160;14.036;2023-04-01T14:29:29;15.10;92.80
57552;DHT22;43379;48.160;14.036;2023-04-01T14:40:26;14.70;97.40
57552;DHT22;43379;48.160;14.036;2023-04-01T14:43:01;14.50;98.20
57552;DHT22;43379;48.160;14.036;2023-04-01T14:50:56;13.90;99.80
57552;DHT22;43379;48.160;14.036;2023-04-01T14:53:26;13.90;99.90
57552;DHT22;43379;48.160;14.036;2023-04-01T14:55:57;13.70;99.90
57552;DHT22;43379;48.160;14.036;2023-04-01T14:58:40;13.70;99.90
57552;DHT22;43379;48.160;14.036;2023-04-01T15:12:21;13.50;99.90
57552;DHT22;43379;48.160;14.036;2023-04-01T15:21:18;13.10;99.90
57552;DHT22;43379;48.160;14.036;2023-04-01T15:31:53;13.20;99.90
57552;DHT22;43379;48.160;14.036;2023-04-01T15:34:42;13.40;99.90
57552;DHT22;43379;48.160;14.036;2023-04-01T15:43:03;13.40;99.90
57552;DHT22;43379;48.160;14.036;2023-04-01T16:02:21;13.10;99.90
57552;DHT22;43379;48.160;14.036;2023-04-01T16:04:54;13.20;99.90
57552;DHT22;43379;48.160;14.036;2023-04-01T16:18:31;12.90;99.90
57552;DHT22;43379;48.160;14.036;2023-04-01T16:21:07;12.90;99.90
57552;DHT22;43379;48.160;14.036;2023-04-01T16:23:47;12.90;99.90
57552;DHT22;43379;48.160;14.036;2023-04-01T16:26:29;12.90;99.80
57552;DHT22;43379;48.160;14.036;2023-04-01T16:34:25;12.60;99.90
57552;DHT22;43379;48.160;14.036;2023-04-01T16:37:04;12.60;99.90
57552;DHT22;43379;48.160;14.036;2023-04-01T16:39:47;12.60;99.90
57552;DHT22;43379;48.160;14.036;2023-04-01T16:47:40;12.60;99.90
57552;DHT22;43379;48.160;14.036;2023-04-01T16:50:43;12.50;99.90
57552;DHT22;43379;48.160;14.036;2023-04-01T16:58:57;12.30;99.90
57552;DHT22;43379;48.160;14.036;2023-04-01T17:01:29;12.30;99.90
57552;DHT22;43379;48.160;14.036;2023-04-01T17:04:07;12.20;99.90
57552;DHT22;43379;48.160;14.036;2023-04-01T17:06:53;12.20;99.90
57552;DHT22;43379;48.160;14.036;2023-04-01T17:09:36;12.10;99.90
57552;DHT22;43379;48.160;14.036;2023-04-01T17:20:35;12.00;99.90
57552;DHT22;43379;48.160;14.036;2023-04-01T17:23:24;12.00;99.90
57552;DHT22;43379;48.160;14.036;2023-04-01T17:28:59;11.90;99.90
57552;DHT22;43379;48.160;14.036;2023-04-01T17:39:27;11.70;99.90
57552;DHT22;43379;48.160;14.036;2023-04-01T17:42:12;11.70;99.90
57552;DHT22;43379;48.160;14.036;2023-04-01T17:45:04;11.70;99.90
57552;DHT22;43379;48.160;14.036;2023-04-01T17:47:59;11.60;99.90
57552;DHT22;43379;48.160;14.036;2023-04-01T17:53:31;11.60;99.90
57552;DHT22;43379;48.160;14.036;2023-04-01T17:58:45;11.60;99.90
57552;DHT22;43379;48.160;14.036;2023-04-01T18:09:33;11.60;99.90
57552;DHT22;43379;48.160;14.036;2023-04-01T18:12:27;11.60;99.90
57552;DHT22;43379;48.160;14.036;2023-04-01T18:21:02;11.50;99.90
57552;DHT22;43379;48.160;14.036;2023-04-01T18:28:54;11.40;99.90
57552;DHT22;43379;48.160;14.036;2023-04-01T18:31:24;11.40;99.90
57552;DHT22;43379;48.160;14.036;2023-04-01T18:42:53;11.40;99.90
57552;DHT22;43379;48.160;14.036;2023-04-01T18:48:32;11.40;99.90
57552;DHT22;43379;48.160;14.036;2023-04-01T18:53:35;11.30;99.90
57552;DHT22;43379;48.160;14.036;2023-04-01T18:56:10;11.30;99.90
57552;DHT22;43379;48.160;14.036;2023-04-01T19:01:12;11.30;99.90
57552;DHT22;43379;48.160;14.036;2023-04-01T19:03:52;11.20;99.90
57552;DHT22;43379;48.160;14.036;2023-04-01T19:06:41;11.20;99.90
57552;DHT22;43379;48.160;14.036;2023-04-01T19:09:24;11.30;99.90
57552;DHT22;43379;48.160;14.036;2023-04-01T19:25:29;11.30;99.90
57552;DHT22;43379;48.160;14.036;2023-04-01T19:31:03;11.20;99.90
57552;DHT22;43379;48.160;14.036;2023-04-01T19:38:52;11.20;99.90
57552;DHT22;43379;48.160;14.036;2023-04-01T20:02:48;11.20;99.90
57552;DHT22;43379;48.160;14.036;2023-04-01T20:10:51;11.10;99.90
57552;DHT22;43379;48.160;14.036;2023-04-01T20:16:11;11.10;99.90
57552;DHT22;43379;48.160;14.036;2023-04-01T20:18:52;11.10;99.90
57552;DHT22;43379;48.160;14.036;2023-04-01T20:21:27;11.10;99.90
57552;DHT22;43379;48.160;14.036;2023-04-01T20:24:00;11.10;99.90
57552;DHT22;43379;48.160;14.036;2023-04-01T20:26:39;11.10;99.90
57552;DHT22;43379;48.160;14.036;2023-04-01T20:32:15;11.10;99.90
57552;DHT22;43379;48.160;14.036;2023-04-01T20:35:00;11.10;99.90
57552;DHT22;43379;48.160;14.036;2023-04-01T20:37:42;11.10;99.90
57552;DHT22;43379;48.160;14.036;2023-04-01T20:50:51;11.10;99.90
57552;DHT22;43379;48.160;14.036;2023-04-01T20:53:28;11.20;99.90
57552;DHT22;43379;48.160;14.036;2023-04-01T21:06:58;11.30;99.90
57552;DHT22;43379;48.160;14.036;2023-04-01T21:26:34;11.20;99.90
57552;DHT22;43379;48.160;14.036;2023-04-01T21:34:52;11.30;99.90
57552;DHT22;43379;48.160;14.036;2023-04-01T21:37:46;11.30;99.90
57552;DHT22;43379;48.160;14.036;2023-04-01T21:43:29;11.40;99.90
57552;DHT22;43379;48.160;14.036;2023-04-01T22:14:16;11.40;99.90
57552;DHT22;43379;48.160;14.036;2023-04-01T22:17:07;11.30;99.90
57552;DHT22;43379;48.160;14.036;2023-04-01T22:20:52;11.30;99.90
57552;DHT22;43379;48.160;14.036;2023-04-01T22:25:53;11.30;99.90
57552;DHT22;43379;48.160;14.036;2023-04-01T22:28:29;11.30;99.90
57552;DHT22;43379;48.160;14.036;2023-04-01T22:31:00;11.30;99.90
57552;DHT22;43379;48.160;14.036;2023-04-01T22:43:55;11.20;99.90
57552;DHT22;43379;48.160;14.036;2023-04-01T22:49:15;11.10;99.90
57552;DHT22;43379;48.160;14.036;2023-04-01T22:51:48;11.20;99.90
57552;DHT22;43379;48.160;14.036;2023-04-01T22:54:27;11.20;99.90
57552;DHT22;43379;48.160;14.036;2023-04-01T22:57:05;11.10;99.90
57552;DHT22;43379;48.160;14.036;2023-04-01T22:59:42;11.10;99.90
57552;DHT22;43379;48.160;14.036;2023-04-01T23:02:26;11.10;99.90
57552;DHT22;43379;48.160;14.036;2023-04-01T23:04:56;11.10;99.90
57552;DHT22;43379;48.160;14.036;2023-04-01T23:07:56;11.10;99.90
57552;DHT22;43379;48.160;14.036;2023-04-01T23:10:52;11.10;99.90
57552;DHT22;43379;48.160;14.036;2023-04-01T23:13:24;11.00;99.90
57552;DHT22;43379;48.160;14.036;2023-04-01T23:15:53;11.00;99.90
57552;DHT22;43379;48.160;14.036;2023-04-01T23:18:27;11.10;99.90
57552;DHT22;43379;48.160;14.036;2023-04-01T23:21:12;11.10;99.90
57552;DHT22;43379;48.160;14.036;2023-04-01T23:26:40;11.00;99.90
57552;DHT22;43379;48.160;14.036;2023-04-01T23:29:15;11.00;99.90
57552;DHT22;43379;48.160;14.036;2023-04-01T23:31:46;11.10;99.90
57552;DHT22;43379;48.160;14.036;2023-04-01T23:37:21;11.10;99.90
57552;DHT22;43379;48.160;14.036;2023-04-01T23:39:45;11.10;99.90
57552;DHT22;43379;48.160;14.036;2023-04-01T23:42:38;11.10;99.90
57552;DHT22;43379;48.160;14.036;2023-04-01T23:45:15;11.10;99.90
57552;DHT22;43379;48.160;14.036;2023-04-01T23:47:48;11.10;99.90
57552;DHT22;43379;48.160;14.036;2023-04-01T23:50:24;11.10;99.90
57552;DHT22;43379;48.160;14.036;2023-04-01T23:55:28;11.10;99.90
